Maryland METAR Reports


Distance/Direction noted is from Ellicott City, MD as the crow flies

KCBE - Cumberland - 118 miles WNW
Updated: Mon, 10/20/2014 4:46 PM
Clear
Clear
 Wind from calm
Wind: Calm
Temperature: 55°F
Dew Point: 36°F
Humidity: 47%
Barometer: 29.98 inHg
Clouds: Clear
Visibility: 10 miles
2014/10/20 20:46 KCBE 202046Z AUTO 00000KT 10SM CLR 13/02 A2998 RMK AO1
KHGR - Hagerstown - 57 miles NW
Updated: Mon, 10/20/2014 4:53 PM
Clear
Clear
 Wind from SW
Wind: SW 5 mph
Temperature: 61°F
Dew Point: 36°F
Humidity: 39%
Barometer: 29.94 inHg
Clouds: Clear
Visibility: 10 miles
2014/10/20 20:53 KHGR 202053Z 23004KT 10SM CLR 16/02 A2994 RMK AO2 SLP150 T01610022 56007
 
KFDK - Frederick - 34 miles NW
Updated: Mon, 10/20/2014 4:45 PM
Clear
Clear
 Wind from WSW
Wind: WSW 5 mph
Temperature: 66°F
Dew Point: 39°F
Humidity: 37%
Barometer: 29.97 inHg
Clouds: Clear
Visibility: 10 miles
2014/10/20 20:45 KFDK 202045Z 24004KT 10SM SKC 19/04 A2997
KGAI - Gaithersburg - 26 miles SW
Updated: Mon, 10/20/2014 4:55 PM
Clear
Clear
 Wind from SW
Wind: SW 5 mph
Temperature: 64°F
Dew Point: 45°F
Humidity: 49%
Barometer: 29.98 inHg
Clouds: Clear
Visibility: 10 miles
2014/10/20 20:55 KGAI 202055Z 22004KT 10SM CLR 18/07 A2998 RMK AO1 57010
 
KBWI - BWI Airport - 15 miles SE
Updated: Mon, 10/20/2014 4:54 PM
Mostly Cloudy
Mostly Cloudy
 Wind from varies
Wind: varies 3 mph
Temperature: 64°F
Dew Point: 45°F
Humidity: 49%
Barometer: 29.94 inHg
Clouds: Mostly Cloudy
Visibility: 10 miles
Cloud Details: Few Clouds 7000 ft
Mostly Cloudy 20000 ft
2014/10/20 20:54 KBWI 202054Z VRB03KT 10SM FEW070 BKN200 18/07 A2994 RMK AO2 SLP139 T01830067 56015
KNAK - Annapolis - 32 miles SSE
Updated: Mon, 10/20/2014 4:54 PM
Clear
Clear
 Wind from S
Wind: S 9 mph
Temperature: 63°F
Dew Point: 45°F
Humidity: 52%
Barometer: 29.95 inHg
Clouds: Clear
Visibility: 10 miles
2014/10/20 20:54 KNAK 202054Z AUTO 17008KT 10SM CLR 17/07 A2995 RMK AO2 SLP145 T01720072 56014
 
KESN - Easton - 63 miles SE
Updated: Mon, 10/20/2014 4:50 PM
Mostly Cloudy
Mostly Cloudy
 Wind from SSW
Wind: SSW 10 mph, Gust: 18 mph
Temperature: 64°F
Dew Point: 45°F
Humidity: 49%
Barometer: 30.01 inHg
Clouds: Mostly Cloudy
Visibility: 10 miles
Cloud Details: Mostly Cloudy 25000 ft
2014/10/20 20:50 KESN 202050Z 20009G16KT 10SM BKN250 18/07 A3001
KSBY - Salisbury - 112 miles SE
Updated: Mon, 10/20/2014 4:54 PM
Clear
Clear
 Wind from SSW
Wind: SSW 10 mph
Temperature: 66°F
Dew Point: 43°F
Humidity: 43%
Barometer: 29.99 inHg
Clouds: Clear
Visibility: 10 miles
2014/10/20 20:54 KSBY 202054Z 20009KT 10SM CLR 19/06 A2999 RMK AO2 SLP157 T01890061 56020